Skip Navigation Links Skip Navigation Links

Current Weather

Grinnell Regional, Grinnell, Iowa

For information only: do not use for flight planning or navigation.
Latest weather
Observation time Tuesday, October 19, 2021 3:15 AM CDT
Local time Tuesday, October 19, 2021 3:24 AM CDT
Flight conditions Visual Meteorological Conditions
Winds
Wind direction South (170°)
Wind speed 9 mph
Visibility 10 mi.
Sky condition
Ceiling unlimited
Sky clear
Temperature 55°F
Dewpoint 46°F
Altimeter 30.04 in.Hg
Derived measurements
Relative humidity 71%
Density altitude 787 ft.
Remarks
Fully automated report.
Automated weather observing station with precipitation discriminator.
METAR KGGI 190815Z AUTO 17008KT 10SM CLR 13/08 A3004 RMK AO2 T01300079

Settings

Location code

InnerDrive.Weather 4.0.6770.0 Release CLR 4.0.30319.42000
Copyright ©2018 Inner Drive Technology. All rights reserved. Portions Copyright ©1986-2018 David Braverman.

Find weather

Site navigation


Skip Navigation Links

Place info

Page info

PayPal - The safer, easier way to pay online!

Return home.

Copyright ©2021 Inner Drive Technology. Purveyors of fine, hand-crafted computer software. Page printed 2021-10-19T08:24:53 UTC.